sensor_id;sensor_type;location;lat;lon;timestamp;P1;durP1;ratioP1;P2;durP2;ratioP2
20166;SDS011;10243;49.118;8.508;2023-03-01T04:33:59;44.33;;;30.13;;
20166;SDS011;10243;49.118;8.508;2023-03-01T04:34:20;42.90;;;30.65;;
20166;SDS011;10243;49.118;8.508;2023-03-01T04:34:40;45.93;;;30.50;;
20166;SDS011;10243;49.118;8.508;2023-03-01T04:35:00;44.47;;;30.58;;
20166;SDS011;10243;49.118;8.508;2023-03-01T04:35:22;44.22;;;30.90;;
20166;SDS011;10243;49.118;8.508;2023-03-01T04:35:42;43.45;;;31.35;;
20166;SDS011;10243;49.118;8.508;2023-03-01T04:36:03;41.83;;;30.73;;
20166;SDS011;10243;49.118;8.508;2023-03-01T04:36:26;42.20;;;30.50;;
20166;SDS011;10243;49.118;8.508;2023-03-01T05:54:11;53.10;;;35.15;;
20166;SDS011;10243;49.118;8.508;2023-03-01T05:54:32;52.78;;;35.25;;
20166;SDS011;10243;49.118;8.508;2023-03-01T05:54:53;51.30;;;34.67;;
20166;SDS011;10243;49.118;8.508;2023-03-01T05:55:13;56.60;;;37.30;;
20166;SDS011;10243;49.118;8.508;2023-03-01T05:55:34;74.27;;;47.13;;
20166;SDS011;10243;49.118;8.508;2023-03-01T05:55:56;205.77;;;112.43;;
20166;SDS011;10243;49.118;8.508;2023-03-01T05:56:16;190.10;;;107.00;;
20166;SDS011;10243;49.118;8.508;2023-03-01T05:56:37;127.27;;;75.83;;
20166;SDS011;10243;49.118;8.508;2023-03-01T05:56:57;87.47;;;52.45;;
20166;SDS011;10243;49.118;8.508;2023-03-01T05:57:17;81.33;;;48.20;;
20166;SDS011;10243;49.118;8.508;2023-03-01T05:57:40;86.30;;;50.92;;
20166;SDS011;10243;49.118;8.508;2023-03-01T05:58:01;74.90;;;46.13;;
20166;SDS011;10243;49.118;8.508;2023-03-01T05:58:22;58.97;;;37.60;;
20166;SDS011;10243;49.118;8.508;2023-03-01T05:58:42;54.93;;;35.50;;
20166;SDS011;10243;49.118;8.508;2023-03-01T05:59:04;54.72;;;35.08;;
20166;SDS011;10243;49.118;8.508;2023-03-01T05:59:25;54.58;;;34.13;;
20166;SDS011;10243;49.118;8.508;2023-03-01T05:59:45;50.13;;;33.33;;
20166;SDS011;10243;49.118;8.508;2023-03-01T06:00:06;52.23;;;32.83;;
20166;SDS011;10243;49.118;8.508;2023-03-01T06:00:32;51.30;;;33.03;;
20166;SDS011;10243;49.118;8.508;2023-03-01T06:00:54;48.80;;;32.28;;
20166;SDS011;10243;49.118;8.508;2023-03-01T06:01:14;44.75;;;31.17;;
20166;SDS011;10243;49.118;8.508;2023-03-01T06:01:35;45.73;;;31.93;;
20166;SDS011;10243;49.118;8.508;2023-03-01T06:01:55;45.15;;;31.85;;
20166;SDS011;10243;49.118;8.508;2023-03-01T06:02:20;45.85;;;32.03;;
20166;SDS011;10243;49.118;8.508;2023-03-01T06:02:40;46.78;;;31.33;;
20166;SDS011;10243;49.118;8.508;2023-03-01T06:03:01;45.00;;;30.80;;
20166;SDS011;10243;49.118;8.508;2023-03-01T06:03:21;47.60;;;31.35;;
20166;SDS011;10243;49.118;8.508;2023-03-01T06:03:43;48.90;;;32.40;;
20166;SDS011;10243;49.118;8.508;2023-03-01T06:04:03;50.57;;;32.40;;
20166;SDS011;10243;49.118;8.508;2023-03-01T06:04:24;47.65;;;32.17;;
20166;SDS011;10243;49.118;8.508;2023-03-01T06:04:45;50.03;;;32.65;;
20166;SDS011;10243;49.118;8.508;2023-03-01T06:05:06;49.85;;;32.40;;
20166;SDS011;10243;49.118;8.508;2023-03-01T06:05:27;50.78;;;32.50;;
20166;SDS011;10243;49.118;8.508;2023-03-01T06:05:48;48.22;;;32.08;;
20166;SDS011;10243;49.118;8.508;2023-03-01T06:06:09;45.75;;;31.17;;
20166;SDS011;10243;49.118;8.508;2023-03-01T06:06:30;46.42;;;31.98;;
20166;SDS011;10243;49.118;8.508;2023-03-01T06:06:53;47.13;;;32.05;;
20166;SDS011;10243;49.118;8.508;2023-03-01T06:07:13;48.13;;;31.95;;
20166;SDS011;10243;49.118;8.508;2023-03-01T06:07:35;47.13;;;32.80;;
20166;SDS011;10243;49.118;8.508;2023-03-01T06:07:58;48.03;;;32.90;;
20166;SDS011;10243;49.118;8.508;2023-03-01T06:08:18;47.70;;;32.78;;
20166;SDS011;10243;49.118;8.508;2023-03-01T06:08:42;45.65;;;31.48;;
20166;SDS011;10243;49.118;8.508;2023-03-01T06:09:02;46.30;;;32.07;;
20166;SDS011;10243;49.118;8.508;2023-03-01T06:09:24;48.10;;;32.70;;
20166;SDS011;10243;49.118;8.508;2023-03-01T06:09:46;47.10;;;32.17;;
20166;SDS011;10243;49.118;8.508;2023-03-01T06:10:06;45.37;;;31.53;;
20166;SDS011;10243;49.118;8.508;2023-03-01T06:10:28;44.15;;;31.25;;
20166;SDS011;10243;49.118;8.508;2023-03-01T06:10:49;46.03;;;31.80;;
20166;SDS011;10243;49.118;8.508;2023-03-01T06:11:09;46.83;;;32.63;;
20166;SDS011;10243;49.118;8.508;2023-03-01T06:11:29;45.03;;;31.73;;
20166;SDS011;10243;49.118;8.508;2023-03-01T06:11:51;47.17;;;32.22;;
20166;SDS011;10243;49.118;8.508;2023-03-01T06:12:11;49.22;;;32.72;;
20166;SDS011;10243;49.118;8.508;2023-03-01T06:12:32;50.23;;;32.50;;
20166;SDS011;10243;49.118;8.508;2023-03-01T06:12:53;49.25;;;32.47;;
20166;SDS011;10243;49.118;8.508;2023-03-01T06:13:14;53.35;;;33.88;;
20166;SDS011;10243;49.118;8.508;2023-03-01T06:13:35;53.43;;;34.00;;
20166;SDS011;10243;49.118;8.508;2023-03-01T06:13:55;46.35;;;31.98;;
20166;SDS011;10243;49.118;8.508;2023-03-01T06:14:15;43.10;;;30.73;;
20166;SDS011;10243;49.118;8.508;2023-03-01T06:14:37;46.05;;;32.17;;
20166;SDS011;10243;49.118;8.508;2023-03-01T06:14:58;49.55;;;33.60;;
20166;SDS011;10243;49.118;8.508;2023-03-01T06:15:18;50.22;;;34.28;;
20166;SDS011;10243;49.118;8.508;2023-03-01T06:15:39;50.80;;;33.57;;
20166;SDS011;10243;49.118;8.508;2023-03-01T06:16:00;48.72;;;32.45;;
20166;SDS011;10243;49.118;8.508;2023-03-01T06:16:20;51.13;;;33.80;;
20166;SDS011;10243;49.118;8.508;2023-03-01T06:16:41;47.83;;;32.83;;
20166;SDS011;10243;49.118;8.508;2023-03-01T06:17:01;50.03;;;33.75;;
20166;SDS011;10243;49.118;8.508;2023-03-01T06:17:22;49.83;;;33.90;;
20166;SDS011;10243;49.118;8.508;2023-03-01T06:17:44;53.30;;;34.63;;
20166;SDS011;10243;49.118;8.508;2023-03-01T06:18:04;52.80;;;34.22;;
20166;SDS011;10243;49.118;8.508;2023-03-01T06:18:25;51.42;;;33.88;;
20166;SDS011;10243;49.118;8.508;2023-03-01T06:18:45;50.60;;;35.30;;
20166;SDS011;10243;49.118;8.508;2023-03-01T06:19:07;52.55;;;36.30;;
20166;SDS011;10243;49.118;8.508;2023-03-01T06:19:27;56.20;;;36.13;;
20166;SDS011;10243;49.118;8.508;2023-03-01T06:19:47;54.17;;;36.10;;
20166;SDS011;10243;49.118;8.508;2023-03-01T06:20:09;53.28;;;35.22;;
20166;SDS011;10243;49.118;8.508;2023-03-01T06:20:30;53.05;;;35.03;;
20166;SDS011;10243;49.118;8.508;2023-03-01T06:20:54;50.17;;;34.72;;
20166;SDS011;10243;49.118;8.508;2023-03-01T06:21:15;50.53;;;34.47;;
20166;SDS011;10243;49.118;8.508;2023-03-01T06:21:35;49.40;;;33.83;;
20166;SDS011;10243;49.118;8.508;2023-03-01T06:21:57;51.08;;;33.85;;
20166;SDS011;10243;49.118;8.508;2023-03-01T06:22:17;48.97;;;32.97;;
20166;SDS011;10243;49.118;8.508;2023-03-01T06:22:38;50.22;;;33.70;;
20166;SDS011;10243;49.118;8.508;2023-03-01T06:22:58;50.53;;;34.13;;
20166;SDS011;10243;49.118;8.508;2023-03-01T06:23:20;47.78;;;33.03;;
20166;SDS011;10243;49.118;8.508;2023-03-01T06:23:40;54.17;;;35.00;;
20166;SDS011;10243;49.118;8.508;2023-03-01T06:24:00;53.13;;;35.40;;
20166;SDS011;10243;49.118;8.508;2023-03-01T06:24:21;52.80;;;35.27;;
20166;SDS011;10243;49.118;8.508;2023-03-01T06:24:43;53.28;;;35.55;;
20166;SDS011;10243;49.118;8.508;2023-03-01T06:25:05;58.60;;;38.20;;
20166;SDS011;10243;49.118;8.508;2023-03-01T06:25:26;60.92;;;40.10;;
20166;SDS011;10243;49.118;8.508;2023-03-01T06:25:46;64.80;;;43.35;;
20166;SDS011;10243;49.118;8.508;2023-03-01T06:26:07;67.40;;;42.07;;
20166;SDS011;10243;49.118;8.508;2023-03-01T06:26:29;62.05;;;40.15;;
20166;SDS011;10243;49.118;8.508;2023-03-01T06:26:49;59.20;;;38.88;;
20166;SDS011;10243;49.118;8.508;2023-03-01T06:27:10;56.50;;;37.47;;
20166;SDS011;10243;49.118;8.508;2023-03-01T06:27:30;54.25;;;36.97;;
20166;SDS011;10243;49.118;8.508;2023-03-01T06:27:51;55.33;;;36.90;;
20166;SDS011;10243;49.118;8.508;2023-03-01T06:28:13;53.55;;;36.38;;
20166;SDS011;10243;49.118;8.508;2023-03-01T06:28:33;56.57;;;37.47;;
20166;SDS011;10243;49.118;8.508;2023-03-01T06:28:54;57.23;;;37.03;;
20166;SDS011;10243;49.118;8.508;2023-03-01T06:29:14;55.10;;;35.30;;
20166;SDS011;10243;49.118;8.508;2023-03-01T06:29:34;53.22;;;34.85;;
20166;SDS011;10243;49.118;8.508;2023-03-01T06:29:56;53.17;;;34.72;;
20166;SDS011;10243;49.118;8.508;2023-03-01T06:30:17;51.95;;;34.60;;
20166;SDS011;10243;49.118;8.508;2023-03-01T06:30:38;48.13;;;33.90;;
20166;SDS011;10243;49.118;8.508;2023-03-01T06:30:58;48.50;;;33.70;;
20166;SDS011;10243;49.118;8.508;2023-03-01T06:31:20;48.60;;;33.45;;
20166;SDS011;10243;49.118;8.508;2023-03-01T06:31:40;49.83;;;33.65;;
20166;SDS011;10243;49.118;8.508;2023-03-01T06:32:01;51.40;;;33.97;;
20166;SDS011;10243;49.118;8.508;2023-03-01T06:32:22;49.28;;;33.40;;
20166;SDS011;10243;49.118;8.508;2023-03-01T06:32:43;50.58;;;33.05;;
20166;SDS011;10243;49.118;8.508;2023-03-01T06:33:04;48.50;;;33.63;;
20166;SDS011;10243;49.118;8.508;2023-03-01T06:33:24;51.10;;;33.78;;
20166;SDS011;10243;49.118;8.508;2023-03-01T06:33:44;53.13;;;33.77;;
20166;SDS011;10243;49.118;8.508;2023-03-01T06:34:06;51.90;;;33.38;;
20166;SDS011;10243;49.118;8.508;2023-03-01T06:34:26;50.30;;;33.15;;
20166;SDS011;10243;49.118;8.508;2023-03-01T06:34:46;47.57;;;32.87;;
20166;SDS011;10243;49.118;8.508;2023-03-01T06:35:07;50.80;;;33.38;;
20166;SDS011;10243;49.118;8.508;2023-03-01T06:35:28;51.95;;;33.25;;
20166;SDS011;10243;49.118;8.508;2023-03-01T06:35:50;49.42;;;33.13;;
20166;SDS011;10243;49.118;8.508;2023-03-01T06:36:11;47.27;;;32.90;;
20166;SDS011;10243;49.118;8.508;2023-03-01T06:36:31;47.45;;;31.77;;
20166;SDS011;10243;49.118;8.508;2023-03-01T06:36:51;47.63;;;31.90;;
20166;SDS011;10243;49.118;8.508;2023-03-01T06:37:13;50.60;;;32.17;;
20166;SDS011;10243;49.118;8.508;2023-03-01T06:37:33;51.87;;;32.47;;
20166;SDS011;10243;49.118;8.508;2023-03-01T06:37:55;47.70;;;31.42;;
20166;SDS011;10243;49.118;8.508;2023-03-01T06:38:15;47.97;;;31.43;;
20166;SDS011;10243;49.118;8.508;2023-03-01T06:38:38;46.70;;;31.85;;
20166;SDS011;10243;49.118;8.508;2023-03-01T06:39:00;46.72;;;32.13;;
20166;SDS011;10243;49.118;8.508;2023-03-01T06:39:21;51.05;;;32.33;;
20166;SDS011;10243;49.118;8.508;2023-03-01T06:39:41;50.13;;;32.33;;
20166;SDS011;10243;49.118;8.508;2023-03-01T06:40:04;47.72;;;31.77;;
20166;SDS011;10243;49.118;8.508;2023-03-01T06:40:28;45.25;;;31.77;;
20166;SDS011;10243;49.118;8.508;2023-03-01T06:40:51;45.63;;;31.73;;
20166;SDS011;10243;49.118;8.508;2023-03-01T06:41:11;46.45;;;31.58;;
20166;SDS011;10243;49.118;8.508;2023-03-01T06:41:33;48.17;;;32.60;;
20166;SDS011;10243;49.118;8.508;2023-03-01T06:41:53;47.33;;;32.87;;
20166;SDS011;10243;49.118;8.508;2023-03-01T06:42:14;49.40;;;32.42;;
20166;SDS011;10243;49.118;8.508;2023-03-01T06:42:34;50.33;;;32.13;;
20166;SDS011;10243;49.118;8.508;2023-03-01T06:42:54;49.65;;;32.50;;
20166;SDS011;10243;49.118;8.508;2023-03-01T06:43:16;49.35;;;32.28;;
20166;SDS011;10243;49.118;8.508;2023-03-01T06:43:36;50.13;;;32.90;;
20166;SDS011;10243;49.118;8.508;2023-03-01T06:43:57;48.93;;;31.93;;
20166;SDS011;10243;49.118;8.508;2023-03-01T06:44:17;48.07;;;32.27;;
20166;SDS011;10243;49.118;8.508;2023-03-01T06:44:38;49.75;;;32.92;;
20166;SDS011;10243;49.118;8.508;2023-03-01T06:44:59;50.17;;;33.23;;
20166;SDS011;10243;49.118;8.508;2023-03-01T06:45:20;48.87;;;33.43;;
20166;SDS011;10243;49.118;8.508;2023-03-01T06:45:40;47.97;;;33.05;;
20166;SDS011;10243;49.118;8.508;2023-03-01T06:46:03;49.15;;;33.05;;
20166;SDS011;10243;49.118;8.508;2023-03-01T06:46:24;50.53;;;33.70;;
20166;SDS011;10243;49.118;8.508;2023-03-01T06:46:44;50.60;;;32.87;;
20166;SDS011;10243;49.118;8.508;2023-03-01T06:47:04;51.80;;;33.50;;
20166;SDS011;10243;49.118;8.508;2023-03-01T06:47:26;51.72;;;33.65;;
20166;SDS011;10243;49.118;8.508;2023-03-01T06:47:46;53.33;;;34.53;;
20166;SDS011;10243;49.118;8.508;2023-03-01T06:48:07;51.40;;;34.17;;
20166;SDS011;10243;49.118;8.508;2023-03-01T06:48:28;52.50;;;34.40;;
20166;SDS011;10243;49.118;8.508;2023-03-01T06:48:49;50.97;;;32.70;;
20166;SDS011;10243;49.118;8.508;2023-03-01T06:49:09;48.53;;;33.13;;
20166;SDS011;10243;49.118;8.508;2023-03-01T06:49:29;51.97;;;34.77;;
20166;SDS011;10243;49.118;8.508;2023-03-01T06:49:51;50.38;;;34.53;;
20166;SDS011;10243;49.118;8.508;2023-03-01T06:50:12;55.42;;;34.95;;
20166;SDS011;10243;49.118;8.508;2023-03-01T06:50:33;55.80;;;35.17;;
20166;SDS011;10243;49.118;8.508;2023-03-01T06:50:53;57.88;;;34.78;;
20166;SDS011;10243;49.118;8.508;2023-03-01T06:51:15;53.50;;;35.13;;
20166;SDS011;10243;49.118;8.508;2023-03-01T06:51:35;55.08;;;35.55;;
20166;SDS011;10243;49.118;8.508;2023-03-01T06:51:56;52.45;;;35.30;;
20166;SDS011;10243;49.118;8.508;2023-03-01T06:52:17;53.28;;;35.65;;
20166;SDS011;10243;49.118;8.508;2023-03-01T06:52:37;52.20;;;35.70;;
20166;SDS011;10243;49.118;8.508;2023-03-01T06:52:59;53.25;;;36.88;;
20166;SDS011;10243;49.118;8.508;2023-03-01T06:53:19;56.33;;;36.90;;
20166;SDS011;10243;49.118;8.508;2023-03-01T06:53:40;54.30;;;35.65;;
20166;SDS011;10243;49.118;8.508;2023-03-01T06:54:01;55.30;;;35.92;;
20166;SDS011;10243;49.118;8.508;2023-03-01T06:54:22;54.30;;;36.22;;
20166;SDS011;10243;49.118;8.508;2023-03-01T06:54:42;58.60;;;36.67;;
20166;SDS011;10243;49.118;8.508;2023-03-01T06:55:05;56.63;;;36.30;;
20166;SDS011;10243;49.118;8.508;2023-03-01T06:55:25;58.95;;;36.03;;
20166;SDS011;10243;49.118;8.508;2023-03-01T06:55:47;60.55;;;36.65;;
20166;SDS011;10243;49.118;8.508;2023-03-01T06:56:07;59.27;;;37.40;;
20166;SDS011;10243;49.118;8.508;2023-03-01T06:56:28;55.90;;;36.65;;
20166;SDS011;10243;49.118;8.508;2023-03-01T06:56:48;58.40;;;36.87;;
20166;SDS011;10243;49.118;8.508;2023-03-01T06:57:10;56.05;;;36.72;;
20166;SDS011;10243;49.118;8.508;2023-03-01T06:57:30;54.90;;;35.93;;
20166;SDS011;10243;49.118;8.508;2023-03-01T06:57:53;58.67;;;36.58;;
20166;SDS011;10243;49.118;8.508;2023-03-01T06:58:15;58.25;;;35.83;;
20166;SDS011;10243;49.118;8.508;2023-03-01T06:58:35;55.33;;;35.70;;
20166;SDS011;10243;49.118;8.508;2023-03-01T06:58:55;53.88;;;36.50;;
20166;SDS011;10243;49.118;8.508;2023-03-01T06:59:16;57.00;;;37.47;;
20166;SDS011;10243;49.118;8.508;2023-03-01T06:59:38;58.53;;;37.95;;
20166;SDS011;10243;49.118;8.508;2023-03-01T06:59:58;53.50;;;37.17;;
20166;SDS011;10243;49.118;8.508;2023-03-01T07:00:19;54.83;;;36.53;;
20166;SDS011;10243;49.118;8.508;2023-03-01T07:00:40;57.22;;;36.78;;
20166;SDS011;10243;49.118;8.508;2023-03-01T07:01:05;56.88;;;38.22;;
20166;SDS011;10243;49.118;8.508;2023-03-01T07:01:25;53.10;;;37.25;;
20166;SDS011;10243;49.118;8.508;2023-03-01T07:01:45;54.20;;;37.13;;
20166;SDS011;10243;49.118;8.508;2023-03-01T07:02:06;57.40;;;36.27;;
20166;SDS011;10243;49.118;8.508;2023-03-01T07:02:27;56.90;;;37.17;;
20166;SDS011;10243;49.118;8.508;2023-03-01T07:02:48;56.27;;;36.57;;
20166;SDS011;10243;49.118;8.508;2023-03-01T07:03:08;59.23;;;36.97;;
20166;SDS011;10243;49.118;8.508;2023-03-01T07:03:29;57.88;;;36.78;;
20166;SDS011;10243;49.118;8.508;2023-03-01T07:03:50;54.73;;;37.03;;
20166;SDS011;10243;49.118;8.508;2023-03-01T07:04:10;59.60;;;36.97;;
20166;SDS011;10243;49.118;8.508;2023-03-01T07:04:31;61.43;;;36.00;;
20166;SDS011;10243;49.118;8.508;2023-03-01T07:04:52;61.42;;;36.67;;
20166;SDS011;10243;49.118;8.508;2023-03-01T07:05:12;56.93;;;35.77;;
20166;SDS011;10243;49.118;8.508;2023-03-01T07:05:33;54.33;;;35.93;;
20166;SDS011;10243;49.118;8.508;2023-03-01T07:05:54;55.72;;;36.80;;
20166;SDS011;10243;49.118;8.508;2023-03-01T07:06:15;55.23;;;36.87;;
20166;SDS011;10243;49.118;8.508;2023-03-01T07:06:35;55.80;;;36.22;;
20166;SDS011;10243;49.118;8.508;2023-03-01T07:06:56;55.23;;;36.47;;
20166;SDS011;10243;49.118;8.508;2023-03-01T07:07:18;58.17;;;36.50;;
20166;SDS011;10243;49.118;8.508;2023-03-01T07:07:38;55.08;;;36.38;;
20166;SDS011;10243;49.118;8.508;2023-03-01T07:07:59;56.13;;;36.33;;
20166;SDS011;10243;49.118;8.508;2023-03-01T07:08:19;66.10;;;37.05;;
20166;SDS011;10243;49.118;8.508;2023-03-01T07:08:41;64.03;;;36.65;;
20166;SDS011;10243;49.118;8.508;2023-03-01T07:09:01;55.85;;;36.53;;
20166;SDS011;10243;49.118;8.508;2023-03-01T07:09:22;57.40;;;36.87;;
20166;SDS011;10243;49.118;8.508;2023-03-01T07:09:42;58.28;;;37.30;;
20166;SDS011;10243;49.118;8.508;2023-03-01T07:10:06;60.53;;;38.17;;
20166;SDS011;10243;49.118;8.508;2023-03-01T07:10:27;54.75;;;36.13;;
20166;SDS011;10243;49.118;8.508;2023-03-01T07:10:47;56.07;;;36.63;;
20166;SDS011;10243;49.118;8.508;2023-03-01T07:11:29;62.43;;;38.63;;
20166;SDS011;10243;49.118;8.508;2023-03-01T07:11:49;60.80;;;37.90;;
20166;SDS011;10243;49.118;8.508;2023-03-01T07:12:11;57.10;;;37.78;;
20166;SDS011;10243;49.118;8.508;2023-03-01T07:12:31;57.03;;;38.00;;
20166;SDS011;10243;49.118;8.508;2023-03-01T07:12:54;55.75;;;37.00;;
20166;SDS011;10243;49.118;8.508;2023-03-01T07:13:15;51.67;;;36.33;;
20166;SDS011;10243;49.118;8.508;2023-03-01T07:13:35;54.90;;;36.67;;
20166;SDS011;10243;49.118;8.508;2023-03-01T07:13:56;56.53;;;37.03;;
20166;SDS011;10243;49.118;8.508;2023-03-01T07:14:18;55.40;;;36.50;;
20166;SDS011;10243;49.118;8.508;2023-03-01T07:14:39;54.55;;;36.05;;
20166;SDS011;10243;49.118;8.508;2023-03-01T07:15:00;56.83;;;36.50;;
20166;SDS011;10243;49.118;8.508;2023-03-01T07:15:20;57.67;;;38.33;;
20166;SDS011;10243;49.118;8.508;2023-03-01T07:15:41;55.78;;;38.10;;
20166;SDS011;10243;49.118;8.508;2023-03-01T07:16:02;55.07;;;36.90;;
20166;SDS011;10243;49.118;8.508;2023-03-01T07:16:22;54.93;;;36.50;;
20166;SDS011;10243;49.118;8.508;2023-03-01T07:16:44;54.80;;;36.10;;
20166;SDS011;10243;49.118;8.508;2023-03-01T07:17:04;54.10;;;35.83;;
20166;SDS011;10243;49.118;8.508;2023-03-01T07:17:24;56.53;;;36.50;;
20166;SDS011;10243;49.118;8.508;2023-03-01T07:17:45;57.30;;;36.40;;
20166;SDS011;10243;49.118;8.508;2023-03-01T07:18:08;56.90;;;36.53;;
20166;SDS011;10243;49.118;8.508;2023-03-01T07:18:28;53.53;;;36.53;;
20166;SDS011;10243;49.118;8.508;2023-03-01T07:18:48;54.45;;;36.72;;
20166;SDS011;10243;49.118;8.508;2023-03-01T07:19:10;56.03;;;37.03;;
20166;SDS011;10243;49.118;8.508;2023-03-01T07:19:30;59.63;;;36.38;;
20166;SDS011;10243;49.118;8.508;2023-03-01T07:19:51;57.17;;;35.37;;
20166;SDS011;10243;49.118;8.508;2023-03-01T07:20:11;55.20;;;35.70;;
20166;SDS011;10243;49.118;8.508;2023-03-01T07:20:33;53.97;;;36.45;;
20166;SDS011;10243;49.118;8.508;2023-03-01T07:20:53;51.57;;;35.43;;
20166;SDS011;10243;49.118;8.508;2023-03-01T07:21:14;54.78;;;35.78;;
20166;SDS011;10243;49.118;8.508;2023-03-01T07:21:36;55.58;;;36.45;;
20166;SDS011;10243;49.118;8.508;2023-03-01T07:21:58;59.63;;;37.45;;
20166;SDS011;10243;49.118;8.508;2023-03-01T07:22:19;63.97;;;38.30;;
20166;SDS011;10243;49.118;8.508;2023-03-01T07:22:39;59.73;;;38.50;;
20166;SDS011;10243;49.118;8.508;2023-03-01T07:23:01;59.38;;;38.97;;
20166;SDS011;10243;49.118;8.508;2023-03-01T07:23:21;57.03;;;37.80;;
20166;SDS011;10243;49.118;8.508;2023-03-01T07:23:42;57.40;;;37.70;;
20166;SDS011;10243;49.118;8.508;2023-03-01T07:24:02;55.08;;;38.10;;
20166;SDS011;10243;49.118;8.508;2023-03-01T07:24:24;57.50;;;38.47;;
20166;SDS011;10243;49.118;8.508;2023-03-01T07:24:44;56.45;;;37.20;;
20166;SDS011;10243;49.118;8.508;2023-03-01T07:25:06;58.27;;;38.17;;
20166;SDS011;10243;49.118;8.508;2023-03-01T07:25:27;56.63;;;38.65;;
20166;SDS011;10243;49.118;8.508;2023-03-01T07:25:52;58.63;;;38.42;;
20166;SDS011;10243;49.118;8.508;2023-03-01T07:26:13;55.92;;;37.40;;
20166;SDS011;10243;49.118;8.508;2023-03-01T07:26:33;57.70;;;37.35;;
20166;SDS011;10243;49.118;8.508;2023-03-01T07:26:54;56.60;;;36.27;;
20166;SDS011;10243;49.118;8.508;2023-03-01T07:27:15;55.45;;;37.33;;
20166;SDS011;10243;49.118;8.508;2023-03-01T07:27:36;57.57;;;36.97;;
20166;SDS011;10243;49.118;8.508;2023-03-01T07:27:56;57.70;;;36.00;;
20166;SDS011;10243;49.118;8.508;2023-03-01T07:28:17;55.10;;;36.22;;
20166;SDS011;10243;49.118;8.508;2023-03-01T07:28:38;53.95;;;36.65;;
20166;SDS011;10243;49.118;8.508;2023-03-01T07:28:59;52.22;;;36.05;;
20166;SDS011;10243;49.118;8.508;2023-03-01T07:29:21;52.08;;;34.83;;
20166;SDS011;10243;49.118;8.508;2023-03-01T07:29:41;51.30;;;34.95;;
20166;SDS011;10243;49.118;8.508;2023-03-01T07:30:01;54.73;;;35.87;;
20166;SDS011;10243;49.118;8.508;2023-03-01T07:30:23;55.42;;;35.75;;
20166;SDS011;10243;49.118;8.508;2023-03-01T07:30:45;52.72;;;36.40;;
20166;SDS011;10243;49.118;8.508;2023-03-01T07:31:06;53.70;;;36.22;;
20166;SDS011;10243;49.118;8.508;2023-03-01T07:31:27;51.20;;;35.65;;
20166;SDS011;10243;49.118;8.508;2023-03-01T07:31:48;51.15;;;35.25;;
20166;SDS011;10243;49.118;8.508;2023-03-01T07:32:08;53.43;;;35.80;;
20166;SDS011;10243;49.118;8.508;2023-03-01T07:32:30;56.63;;;36.55;;
20166;SDS011;10243;49.118;8.508;2023-03-01T07:32:51;53.17;;;35.92;;
20166;SDS011;10243;49.118;8.508;2023-03-01T07:33:11;57.30;;;35.67;;
20166;SDS011;10243;49.118;8.508;2023-03-01T07:33:32;53.63;;;34.35;;
20166;SDS011;10243;49.118;8.508;2023-03-01T07:33:53;51.70;;;35.63;;
20166;SDS011;10243;49.118;8.508;2023-03-01T07:34:13;52.10;;;35.27;;
20166;SDS011;10243;49.118;8.508;2023-03-01T07:34:34;52.33;;;35.97;;
20166;SDS011;10243;49.118;8.508;2023-03-01T07:34:55;57.28;;;36.70;;
20166;SDS011;10243;49.118;8.508;2023-03-01T07:35:15;54.50;;;36.75;;
20166;SDS011;10243;49.118;8.508;2023-03-01T07:35:36;55.23;;;36.67;;
20166;SDS011;10243;49.118;8.508;2023-03-01T07:35:56;55.30;;;36.93;;
20166;SDS011;10243;49.118;8.508;2023-03-01T07:36:18;51.95;;;36.42;;
20166;SDS011;10243;49.118;8.508;2023-03-01T07:36:39;49.70;;;34.63;;
20166;SDS011;10243;49.118;8.508;2023-03-01T07:36:59;49.43;;;33.83;;
20166;SDS011;10243;49.118;8.508;2023-03-01T07:37:20;51.75;;;34.42;;
20166;SDS011;10243;49.118;8.508;2023-03-01T07:37:41;51.37;;;34.93;;
20166;SDS011;10243;49.118;8.508;2023-03-01T07:38:02;48.80;;;34.23;;
20166;SDS011;10243;49.118;8.508;2023-03-01T07:38:22;49.50;;;34.07;;
20166;SDS011;10243;49.118;8.508;2023-03-01T07:38:43;51.25;;;33.70;;
20166;SDS011;10243;49.118;8.508;2023-03-01T07:39:04;51.92;;;34.38;;
20166;SDS011;10243;49.118;8.508;2023-03-01T07:39:24;49.72;;;33.72;;
20166;SDS011;10243;49.118;8.508;2023-03-01T07:39:45;47.80;;;34.13;;
20166;SDS011;10243;49.118;8.508;2023-03-01T07:40:07;48.90;;;34.10;;
20166;SDS011;10243;49.118;8.508;2023-03-01T07:40:29;50.58;;;34.75;;
20166;SDS011;10243;49.118;8.508;2023-03-01T07:40:49;52.78;;;34.90;;
20166;SDS011;10243;49.118;8.508;2023-03-01T07:41:10;50.23;;;34.13;;
20166;SDS011;10243;49.118;8.508;2023-03-01T07:41:31;51.40;;;34.13;;
20166;SDS011;10243;49.118;8.508;2023-03-01T07:41:52;50.60;;;34.50;;
20166;SDS011;10243;49.118;8.508;2023-03-01T07:42:15;51.45;;;34.50;;
20166;SDS011;10243;49.118;8.508;2023-03-01T07:42:37;51.78;;;35.13;;
20166;SDS011;10243;49.118;8.508;2023-03-01T07:42:57;54.10;;;36.40;;
20166;SDS011;10243;49.118;8.508;2023-03-01T07:43:18;51.30;;;35.15;;
20166;SDS011;10243;49.118;8.508;2023-03-01T07:43:40;50.00;;;34.47;;
20166;SDS011;10243;49.118;8.508;2023-03-01T07:44:00;50.13;;;34.95;;
20166;SDS011;10243;49.118;8.508;2023-03-01T07:44:21;51.03;;;35.07;;
20166;SDS011;10243;49.118;8.508;2023-03-01T07:44:42;51.25;;;34.72;;
20166;SDS011;10243;49.118;8.508;2023-03-01T07:45:03;49.03;;;34.23;;
20166;SDS011;10243;49.118;8.508;2023-03-01T07:45:24;50.15;;;34.92;;
20166;SDS011;10243;49.118;8.508;2023-03-01T07:45:45;53.80;;;34.97;;
20166;SDS011;10243;49.118;8.508;2023-03-01T07:46:06;55.87;;;35.33;;
20166;SDS011;10243;49.118;8.508;2023-03-01T07:46:26;50.10;;;34.35;;
20166;SDS011;10243;49.118;8.508;2023-03-01T07:46:47;47.37;;;33.03;;
20166;SDS011;10243;49.118;8.508;2023-03-01T07:47:08;50.90;;;33.17;;
20166;SDS011;10243;49.118;8.508;2023-03-01T07:47:28;50.97;;;33.47;;
20166;SDS011;10243;49.118;8.508;2023-03-01T07:47:49;52.30;;;34.70;;
20166;SDS011;10243;49.118;8.508;2023-03-01T07:48:11;50.25;;;34.10;;
20166;SDS011;10243;49.118;8.508;2023-03-01T07:48:32;54.22;;;34.17;;
20166;SDS011;10243;49.118;8.508;2023-03-01T07:48:52;50.10;;;33.00;;
20166;SDS011;10243;49.118;8.508;2023-03-01T07:49:13;53.60;;;34.67;;
20166;SDS011;10243;49.118;8.508;2023-03-01T07:49:34;54.15;;;34.25;;
20166;SDS011;10243;49.118;8.508;2023-03-01T07:49:54;54.97;;;34.77;;
20166;SDS011;10243;49.118;8.508;2023-03-01T07:50:15;48.38;;;33.70;;
20166;SDS011;10243;49.118;8.508;2023-03-01T07:50:37;48.13;;;32.70;;
20166;SDS011;10243;49.118;8.508;2023-03-01T07:50:57;49.50;;;33.13;;
20166;SDS011;10243;49.118;8.508;2023-03-01T07:51:18;47.57;;;33.20;;
20166;SDS011;10243;49.118;8.508;2023-03-01T07:51:38;46.95;;;33.97;;
20166;SDS011;10243;49.118;8.508;2023-03-01T07:51:59;49.97;;;34.17;;
20166;SDS011;10243;49.118;8.508;2023-03-01T07:52:20;50.25;;;34.10;;
20166;SDS011;10243;49.118;8.508;2023-03-01T07:52:40;48.63;;;33.40;;
20166;SDS011;10243;49.118;8.508;2023-03-01T07:53:01;47.40;;;32.33;;
20166;SDS011;10243;49.118;8.508;2023-03-01T07:53:22;49.30;;;32.58;;
20166;SDS011;10243;49.118;8.508;2023-03-01T07:53:45;46.47;;;33.50;;
20166;SDS011;10243;49.118;8.508;2023-03-01T07:54:05;47.22;;;33.05;;